createdAt,value
2022-11-23T00:01:35.231Z,10.02
2022-11-23T00:04:05.502Z,18.65
2022-11-23T00:06:33.167Z,13.98
2022-11-23T00:09:00.006Z,13.52
2022-11-23T00:11:28.113Z,18.20
2022-11-23T00:13:57.648Z,15.35
2022-11-23T00:16:30.585Z,8.90
2022-11-23T00:18:59.735Z,14.27
2022-11-23T00:21:28.449Z,10.18
2022-11-23T00:23:55.848Z,17.92
2022-11-23T00:26:25.681Z,17.00
2022-11-23T00:28:53.613Z,15.75
2022-11-23T00:31:21.546Z,5.80
2022-11-23T00:33:52.943Z,11.40
2022-11-23T00:36:21.734Z,9.98
2022-11-23T00:38:49.985Z,13.02
2022-11-23T00:41:20.425Z,19.55
2022-11-23T00:43:49.868Z,20.50
2022-11-23T00:46:24.041Z,14.73
2022-11-23T00:48:53.581Z,15.48
2022-11-23T00:51:26.827Z,14.52
2022-11-23T00:53:54.178Z,14.82
2022-11-23T00:56:23.567Z,10.60
2022-11-23T00:58:53.414Z,17.00
2022-11-23T01:01:34.254Z,16.35
2022-11-23T01:04:04.461Z,12.88
2022-11-23T01:06:37.771Z,13.48
2022-11-23T01:09:08.992Z,14.35
2022-11-23T01:11:35.953Z,13.35
2022-11-23T01:14:03.413Z,13.63
2022-11-23T01:16:33.316Z,8.80
2022-11-23T01:19:02.677Z,15.00
2022-11-23T01:21:33.416Z,16.77
2022-11-23T01:24:00.905Z,15.65
2022-11-23T01:26:27.727Z,13.25
2022-11-23T01:28:58.002Z,20.48
2022-11-23T01:31:27.010Z,14.05
2022-11-23T01:34:00.411Z,15.75
2022-11-23T01:36:32.453Z,17.35
2022-11-23T01:39:00.742Z,14.20
2022-11-23T01:41:34.209Z,13.82
2022-11-23T01:44:01.854Z,14.93
2022-11-23T01:46:30.431Z,14.65
2022-11-23T01:49:03.795Z,10.95
2022-11-23T01:51:37.353Z,14.73
2022-11-23T01:54:17.101Z,13.50
2022-11-23T01:56:52.439Z,13.65
2022-11-23T01:59:20.328Z,23.48
2022-11-23T02:01:48.432Z,15.95
2022-11-23T02:04:22.458Z,13.15
2022-11-23T02:06:51.107Z,14.18
2022-11-23T02:09:22.042Z,17.90
2022-11-23T02:11:50.405Z,13.82
2022-11-23T02:14:23.212Z,20.75
2022-11-23T02:16:55.496Z,16.15
2022-11-23T02:19:47.666Z,15.80
2022-11-23T02:22:26.913Z,14.60
2022-11-23T02:24:55.686Z,18.13
2022-11-23T02:27:28.025Z,14.52
2022-11-23T02:29:58.608Z,19.90
2022-11-23T02:32:26.483Z,15.48
2022-11-23T02:34:58.792Z,16.15
2022-11-23T02:37:26.899Z,17.10
2022-11-23T02:39:56.501Z,21.95
2022-11-23T02:42:24.786Z,20.98
2022-11-23T02:45:09.207Z,22.52
2022-11-23T02:47:38.293Z,16.10
2022-11-23T02:50:05.578Z,16.70
2022-11-23T02:52:32.492Z,21.08
2022-11-23T02:54:59.320Z,17.52
2022-11-23T02:57:26.320Z,19.55
2022-11-23T02:59:53.186Z,17.75
2022-11-23T03:02:20.137Z,17.38
2022-11-23T03:04:47.206Z,15.73
2022-11-23T03:07:14.419Z,21.85
2022-11-23T03:09:41.338Z,16.02
2022-11-23T03:12:09.592Z,21.98
2022-11-23T03:14:38.770Z,19.92
2022-11-23T03:17:06.076Z,19.05
2022-11-23T03:19:38.049Z,16.30
2022-11-23T03:22:05.157Z,21.88
2022-11-23T03:24:32.192Z,11.95
2022-11-23T03:27:02.383Z,19.10
2022-11-23T03:29:29.884Z,11.95
2022-11-23T03:32:00.752Z,13.18
2022-11-23T03:34:27.716Z,19.65
2022-11-23T03:36:54.583Z,17.92
2022-11-23T03:39:21.714Z,16.88
2022-11-23T03:42:07.968Z,19.10
2022-11-23T03:44:36.497Z,21.10
2022-11-23T03:47:06.217Z,16.50
2022-11-23T03:49:35.387Z,19.02
2022-11-23T03:52:03.586Z,24.40
2022-11-23T03:54:30.581Z,18.30
2022-11-23T03:56:58.622Z,12.82
2022-11-23T03:59:25.518Z,21.50
2022-11-23T04:01:55.019Z,20.88
2022-11-23T04:04:27.579Z,22.15
2022-11-23T04:07:11.515Z,23.50
2022-11-23T04:09:42.372Z,22.67
2022-11-23T04:12:50.247Z,14.30
2022-11-23T04:15:17.476Z,17.42
2022-11-23T04:17:44.343Z,19.42
2022-11-23T04:20:13.300Z,19.73
2022-11-23T04:22:40.222Z,8.63
2022-11-23T04:25:07.980Z,23.58
2022-11-23T04:27:34.982Z,17.58
2022-11-23T04:30:04.106Z,18.45
2022-11-23T04:32:31.782Z,21.75
2022-11-23T04:35:00.031Z,17.83
2022-11-23T04:37:27.678Z,15.88
2022-11-23T04:39:54.630Z,18.67
2022-11-23T04:42:36.341Z,18.85
2022-11-23T04:45:03.583Z,19.65
2022-11-23T04:47:31.330Z,15.50
2022-11-23T04:50:02.073Z,23.08
2022-11-23T04:52:29.867Z,16.90
2022-11-23T04:55:01.758Z,9.80
2022-11-23T04:57:34.143Z,19.88
2022-11-23T05:00:01.843Z,19.60
2022-11-23T05:02:30.877Z,31.83
2022-11-23T05:05:14.550Z,21.60
2022-11-23T05:07:41.531Z,21.52
2022-11-23T05:10:10.188Z,30.60
2022-11-23T05:12:41.933Z,19.27
2022-11-23T05:15:12.508Z,26.25
2022-11-23T05:17:39.424Z,17.17
2022-11-23T05:20:13.025Z,18.95
2022-11-23T05:22:46.262Z,15.20
2022-11-23T05:25:16.379Z,11.00
2022-11-23T05:27:44.769Z,13.20
2022-11-23T05:30:12.933Z,19.10
2022-11-23T05:32:42.673Z,19.20
2022-11-23T05:35:10.665Z,17.85
2022-11-23T05:37:39.515Z,23.90
2022-11-23T05:40:10.876Z,22.45
2022-11-23T05:42:38.111Z,11.55
2022-11-23T05:45:13.241Z,19.38
2022-11-23T05:47:49.795Z,16.58
2022-11-23T05:50:23.534Z,22.92
2022-11-23T05:53:11.413Z,20.85
2022-11-23T05:55:40.458Z,25.40
2022-11-23T05:58:10.376Z,21.50
2022-11-23T06:00:37.716Z,21.95
2022-11-23T06:03:07.543Z,24.98
2022-11-23T06:05:37.019Z,16.23
2022-11-23T06:08:04.030Z,21.63
2022-11-23T06:10:33.131Z,11.63
2022-11-23T06:13:04.606Z,22.45
2022-11-23T06:18:01.162Z,14.75
2022-11-23T06:20:35.927Z,17.25
2022-11-23T06:23:02.938Z,16.85
2022-11-23T06:25:30.169Z,16.55
2022-11-23T06:28:15.805Z,23.27
2022-11-23T06:30:48.411Z,21.52
2022-11-23T06:33:15.994Z,13.48
2022-11-23T06:36:02.897Z,13.18
2022-11-23T06:38:36.222Z,23.02
2022-11-23T06:41:15.964Z,26.20
2022-11-23T06:43:42.932Z,21.40
2022-11-23T06:46:12.599Z,15.20
2022-11-23T06:48:45.020Z,24.98
2022-11-23T06:51:15.251Z,21.23
2022-11-23T06:53:43.653Z,18.60
2022-11-23T06:56:12.882Z,23.33
2022-11-23T06:58:41.263Z,22.25
2022-11-23T07:01:13.020Z,21.85
2022-11-23T07:03:47.261Z,19.05
2022-11-23T07:06:31.338Z,30.30
2022-11-23T07:09:04.934Z,15.45
2022-11-23T07:11:53.172Z,19.13
2022-11-23T07:14:47.489Z,27.92
2022-11-23T07:17:17.536Z,19.08
2022-11-23T07:19:50.589Z,14.82
2022-11-23T07:22:17.563Z,13.95
2022-11-23T07:24:48.033Z,18.27
2022-11-23T07:27:17.154Z,14.48
2022-11-23T07:29:44.821Z,22.20
2022-11-23T07:32:14.985Z,17.85
2022-11-23T07:34:41.889Z,23.55
2022-11-23T07:37:11.937Z,24.75
2022-11-23T07:39:56.934Z,24.45
2022-11-23T07:42:38.210Z,20.17
2022-11-23T07:45:12.038Z,29.67
2022-11-23T07:47:46.050Z,23.23
2022-11-23T07:50:16.317Z,19.38
2022-11-23T07:52:43.204Z,20.70
2022-11-23T07:55:13.074Z,18.83
2022-11-23T07:57:40.007Z,10.00
2022-11-23T08:00:07.857Z,17.20
2022-11-23T08:02:57.852Z,22.10
2022-11-23T08:05:32.313Z,20.50
2022-11-23T08:08:00.955Z,16.17
2022-11-23T08:10:30.706Z,27.15
2022-11-23T08:12:58.937Z,20.70
2022-11-23T08:15:28.110Z,23.08
2022-11-23T08:17:56.412Z,12.95
2022-11-23T08:20:26.345Z,16.38
2022-11-23T08:22:55.836Z,15.82
2022-11-23T08:25:28.286Z,14.30
2022-11-23T08:28:03.936Z,20.85
2022-11-23T08:30:32.348Z,21.83
2022-11-23T08:33:08.290Z,22.38
2022-11-23T08:35:39.233Z,11.45
2022-11-23T08:38:10.803Z,11.45
2022-11-23T08:40:37.928Z,19.70
2022-11-23T08:43:05.458Z,18.00
2022-11-23T08:45:32.580Z,14.70
2022-11-23T08:48:02.100Z,16.50
2022-11-23T08:50:29.617Z,10.98
2022-11-23T08:52:57.665Z,12.20
2022-11-23T08:55:25.276Z,10.43
2022-11-23T08:57:57.857Z,12.77
2022-11-23T09:02:52.824Z,13.27
2022-11-23T09:05:20.713Z,17.77
2022-11-23T09:07:48.545Z,12.07
2022-11-23T09:10:18.738Z,12.75
2022-11-23T09:12:46.589Z,15.68
2022-11-23T09:15:19.227Z,12.60
2022-11-23T09:17:46.341Z,11.52
2022-11-23T09:20:13.316Z,12.73
2022-11-23T09:22:40.564Z,8.75
2022-11-23T09:25:08.834Z,11.38
2022-11-23T09:27:36.019Z,9.35
2022-11-23T09:30:03.272Z,11.20
2022-11-23T09:32:32.979Z,17.92
2022-11-23T09:34:59.779Z,9.52
2022-11-23T09:37:26.713Z,9.68
2022-11-23T09:39:53.496Z,10.52
2022-11-23T09:42:51.675Z,16.30
2022-11-23T09:45:34.734Z,11.30
2022-11-23T09:48:18.940Z,14.23
2022-11-23T09:50:56.436Z,22.10
2022-11-23T09:53:48.706Z,9.02
2022-11-23T09:56:33.924Z,13.57
2022-11-23T09:59:11.137Z,13.18
2022-11-23T10:01:39.484Z,13.25
2022-11-23T10:07:08.879Z,13.73
2022-11-23T10:09:38.764Z,13.95
2022-11-23T10:12:27.032Z,15.90
2022-11-23T10:15:04.072Z,15.60
2022-11-23T10:17:33.822Z,10.68
2022-11-23T10:20:15.697Z,13.27
2022-11-23T10:22:51.391Z,10.63
2022-11-23T10:25:20.621Z,14.13
2022-11-23T10:27:49.813Z,6.55
2022-11-23T10:30:19.373Z,10.40
2022-11-23T10:33:16.746Z,6.68
2022-11-23T10:35:44.664Z,6.53
2022-11-23T10:38:19.490Z,8.15
2022-11-23T10:41:09.973Z,5.25
2022-11-23T10:44:10.280Z,6.20
2022-11-23T10:46:41.353Z,10.63
2022-11-23T10:49:29.113Z,7.93
2022-11-23T10:52:00.011Z,13.07
2022-11-23T10:54:55.430Z,13.63
2022-11-23T10:57:37.068Z,8.85
2022-11-23T11:00:15.227Z,10.15
2022-11-23T11:02:48.166Z,14.75
2022-11-23T11:06:08.227Z,9.85
2022-11-23T11:08:34.673Z,10.35
2022-11-23T11:11:08.629Z,6.88
2022-11-23T11:13:45.945Z,8.27
2022-11-23T11:16:28.209Z,15.88
2022-11-23T11:18:55.182Z,11.02
2022-11-23T11:21:25.952Z,9.10
2022-11-23T11:24:05.586Z,8.70
2022-11-23T11:26:36.508Z,11.45
2022-11-23T11:29:07.596Z,13.63
2022-11-23T11:32:13.686Z,10.18
2022-11-23T11:34:49.343Z,16.80
2022-11-23T11:37:21.266Z,11.25
2022-11-23T11:39:55.602Z,9.93
2022-11-23T11:42:34.340Z,7.97
2022-11-23T11:45:07.011Z,10.30
2022-11-23T11:47:39.574Z,5.80
2022-11-23T11:53:08.399Z,10.85
2022-11-23T11:56:03.748Z,8.65
2022-11-23T11:58:34.065Z,11.85
2022-11-23T12:01:18.185Z,10.20
2022-11-23T12:03:59.856Z,8.07
2022-11-23T12:06:43.604Z,5.85
2022-11-23T12:09:21.577Z,4.68
2022-11-23T12:11:49.574Z,10.07
2022-11-23T12:14:17.710Z,8.38
2022-11-23T12:17:37.554Z,8.73
2022-11-23T12:20:45.639Z,6.60
2022-11-23T12:23:25.024Z,5.32
2022-11-23T12:26:16.694Z,5.45
2022-11-23T12:29:08.820Z,8.15
2022-11-23T12:31:53.994Z,6.25
2022-11-23T12:34:59.911Z,6.20
2022-11-23T12:37:55.638Z,6.13
2022-11-23T12:40:51.489Z,6.25
2022-11-23T12:43:36.770Z,6.95
2022-11-23T12:46:40.518Z,4.38
2022-11-23T12:49:38.788Z,5.63
2022-11-23T12:52:34.061Z,5.55
2022-11-23T12:55:20.341Z,6.25
2022-11-23T12:58:11.906Z,12.18
2022-11-23T13:01:14.386Z,4.85
2022-11-23T13:04:09.059Z,4.93
2022-11-23T13:07:40.961Z,7.53
2022-11-23T13:10:44.537Z,6.45
2022-11-23T13:13:29.909Z,5.22
2022-11-23T13:16:22.715Z,4.43
2022-11-23T13:19:11.706Z,4.95
2022-11-23T13:21:46.564Z,4.88
2022-11-23T13:24:25.672Z,5.85
2022-11-23T13:27:31.548Z,4.80
2022-11-23T13:30:13.111Z,6.13
2022-11-23T13:32:53.332Z,5.15
2022-11-23T13:35:22.988Z,7.25
2022-11-23T13:37:55.981Z,7.82
2022-11-23T13:40:25.776Z,3.42
2022-11-23T13:43:02.528Z,7.22
2022-11-23T13:45:39.349Z,4.68
2022-11-23T13:48:13.291Z,7.07
2022-11-23T13:50:49.501Z,6.00
2022-11-23T13:53:39.558Z,4.10
2022-11-23T13:56:30.193Z,3.80
2022-11-23T13:59:19.739Z,7.65
2022-11-23T14:02:06.623Z,4.35
2022-11-23T14:04:39.556Z,3.22
2022-11-23T14:07:09.457Z,5.00
2022-11-23T14:09:44.243Z,4.38
2022-11-23T14:12:17.539Z,8.07
2022-11-23T14:15:01.049Z,3.83
2022-11-23T14:18:03.232Z,4.25
2022-11-23T14:20:40.258Z,8.32
2022-11-23T14:23:38.427Z,3.80
2022-11-23T14:26:43.513Z,5.65
2022-11-23T14:29:34.989Z,3.03
2022-11-23T14:32:53.190Z,3.35
2022-11-23T14:36:03.217Z,4.65
2022-11-23T14:38:54.458Z,2.88
2022-11-23T14:41:24.800Z,4.43
2022-11-23T14:43:52.577Z,3.10
2022-11-23T14:46:22.543Z,5.63
2022-11-23T14:48:50.274Z,5.25
2022-11-23T14:51:20.299Z,4.00
2022-11-23T14:53:50.483Z,3.25
2022-11-23T14:56:39.158Z,6.15
2022-11-23T14:59:17.148Z,7.72
2022-11-23T15:01:54.334Z,4.30
2022-11-23T15:04:41.029Z,4.38
2022-11-23T15:07:26.189Z,5.53
2022-11-23T15:10:26.158Z,4.30
2022-11-23T15:12:53.171Z,3.80
2022-11-23T15:15:24.806Z,7.75
2022-11-23T15:17:56.992Z,4.93
2022-11-23T15:20:29.811Z,8.65
2022-11-23T15:25:28.843Z,9.10
2022-11-23T15:27:56.868Z,5.72
2022-11-23T15:30:29.990Z,4.85
2022-11-23T15:33:01.327Z,4.68
2022-11-23T15:35:34.956Z,8.23
2022-11-23T15:38:03.108Z,4.93
2022-11-23T15:40:35.292Z,7.30
2022-11-23T15:43:03.544Z,7.03
2022-11-23T15:45:37.790Z,3.88
2022-11-23T15:48:11.128Z,5.68
2022-11-23T15:50:53.396Z,7.85
2022-11-23T15:53:27.133Z,6.03
2022-11-23T15:55:58.715Z,8.32
2022-11-23T15:58:29.316Z,6.32
2022-11-23T16:01:08.003Z,11.57
2022-11-23T16:04:02.722Z,5.55
2022-11-23T16:06:41.606Z,6.40
2022-11-23T16:09:53.373Z,5.57
2022-11-23T16:12:27.974Z,13.50
2022-11-23T16:15:22.739Z,9.30
2022-11-23T16:17:49.617Z,12.60
2022-11-23T16:20:17.496Z,5.45
2022-11-23T16:22:49.861Z,7.53
2022-11-23T16:25:33.187Z,9.30
2022-11-23T16:28:04.691Z,12.32
2022-11-23T16:30:50.740Z,8.57
2022-11-23T16:33:20.007Z,9.55
2022-11-23T16:35:48.322Z,17.23
2022-11-23T16:38:15.156Z,11.85
2022-11-23T16:40:44.303Z,13.63
2022-11-23T16:43:12.420Z,12.93
2022-11-23T16:45:40.922Z,16.95
2022-11-23T16:48:26.967Z,13.65
2022-11-23T16:50:57.423Z,11.48
2022-11-23T16:53:30.212Z,13.57
2022-11-23T16:56:02.380Z,10.63
2022-11-23T16:58:35.864Z,14.55
2022-11-23T17:01:03.288Z,15.80
2022-11-23T17:03:31.086Z,15.23
2022-11-23T17:05:59.902Z,16.98
2022-11-23T17:08:29.848Z,16.30
2022-11-23T17:10:57.812Z,18.13
2022-11-23T17:13:28.647Z,14.07
2022-11-23T17:15:57.673Z,14.88
2022-11-23T17:18:25.612Z,15.52
2022-11-23T17:20:56.019Z,17.65
2022-11-23T17:23:27.094Z,21.63
2022-11-23T17:25:57.463Z,17.60
2022-11-23T17:28:26.024Z,17.23
2022-11-23T17:30:54.228Z,21.38
2022-11-23T17:33:21.153Z,24.33
2022-11-23T17:35:55.238Z,26.33
2022-11-23T17:38:26.262Z,24.15
2022-11-23T17:40:54.332Z,26.00
2022-11-23T17:43:22.227Z,23.70
2022-11-23T17:45:50.181Z,27.25
2022-11-23T17:48:17.809Z,25.30
2022-11-23T17:50:47.481Z,23.30
2022-11-23T17:53:14.472Z,28.52
2022-11-23T17:55:42.727Z,26.83
2022-11-23T17:58:12.136Z,27.15
2022-11-23T18:00:39.380Z,28.00
2022-11-23T18:03:07.517Z,25.02
2022-11-23T18:05:34.534Z,23.85
2022-11-23T18:08:01.346Z,26.63
2022-11-23T18:10:29.418Z,31.55
2022-11-23T18:12:57.883Z,24.48
2022-11-23T18:15:28.300Z,27.17
2022-11-23T18:18:01.616Z,31.05
2022-11-23T18:20:31.598Z,29.13
2022-11-23T18:22:58.535Z,33.33
2022-11-23T18:25:26.055Z,27.33
2022-11-23T18:27:54.312Z,31.13
2022-11-23T18:30:22.282Z,25.75
2022-11-23T18:32:49.315Z,29.08
2022-11-23T18:35:18.387Z,30.98
2022-11-23T18:37:46.584Z,24.70
2022-11-23T18:40:15.316Z,25.92
2022-11-23T18:42:43.189Z,25.23
2022-11-23T18:45:10.354Z,14.60
2022-11-23T18:47:37.835Z,32.28
2022-11-23T18:50:08.541Z,23.27
2022-11-23T18:52:35.602Z,29.42
2022-11-23T18:55:03.547Z,30.67
2022-11-23T18:57:30.495Z,34.53
2022-11-23T18:59:58.601Z,19.70
2022-11-23T19:02:27.065Z,34.78
2022-11-23T19:04:53.891Z,32.78
2022-11-23T19:07:26.374Z,21.20
2022-11-23T19:09:53.884Z,19.85
2022-11-23T19:12:26.562Z,31.15
2022-11-23T19:14:54.579Z,31.15
2022-11-23T19:17:23.496Z,24.73
2022-11-23T19:19:50.304Z,27.70
2022-11-23T19:22:18.461Z,34.67
2022-11-23T19:24:46.328Z,35.38
2022-11-23T19:27:13.176Z,21.70
2022-11-23T19:29:41.513Z,33.92
2022-11-23T19:32:09.547Z,15.70
2022-11-23T19:34:37.388Z,26.52
2022-11-23T19:37:06.332Z,30.75
2022-11-23T19:39:35.896Z,31.80
2022-11-23T19:42:06.550Z,25.38
2022-11-23T19:44:33.879Z,25.05
2022-11-23T19:47:01.963Z,24.70
2022-11-23T19:49:31.289Z,31.30
2022-11-23T19:51:58.786Z,36.08
2022-11-23T19:54:25.634Z,31.08
2022-11-23T19:56:54.008Z,18.92
2022-11-23T19:59:27.335Z,30.55
2022-11-23T20:01:55.285Z,30.25
2022-11-23T20:04:23.289Z,30.88
2022-11-23T20:06:51.605Z,29.50
2022-11-23T20:09:21.078Z,28.70
2022-11-23T20:11:51.910Z,35.08
2022-11-23T20:14:22.124Z,26.08
2022-11-23T20:16:50.128Z,24.38
2022-11-23T20:19:16.976Z,32.78
2022-11-23T20:21:44.819Z,21.58
2022-11-23T20:24:13.811Z,29.50
2022-11-23T20:26:42.925Z,29.27
2022-11-23T20:29:10.148Z,36.05
2022-11-23T20:31:38.506Z,27.08
2022-11-23T20:34:08.314Z,24.55
2022-11-23T20:36:37.821Z,28.00
2022-11-23T20:39:07.546Z,26.35
2022-11-23T20:41:37.253Z,22.83
2022-11-23T20:44:06.332Z,36.75
2022-11-23T20:49:23.794Z,31.83
2022-11-23T20:51:50.740Z,32.40
2022-11-23T20:54:19.631Z,22.25
2022-11-23T20:56:47.652Z,33.15
2022-11-23T20:59:16.251Z,30.35
2022-11-23T21:01:44.225Z,29.33
2022-11-23T21:04:11.184Z,35.05
2022-11-23T21:06:41.235Z,26.70
2022-11-23T21:09:09.828Z,35.03
2022-11-23T21:11:56.789Z,23.38
2022-11-23T21:14:28.184Z,22.80
2022-11-23T21:17:01.108Z,26.38
2022-11-23T21:22:11.503Z,26.83
2022-11-23T21:24:39.378Z,26.00
2022-11-23T21:27:12.342Z,33.08
2022-11-23T21:29:40.856Z,25.07
2022-11-23T21:32:07.729Z,24.73
2022-11-23T21:34:39.401Z,24.60
2022-11-23T21:37:06.254Z,25.65
2022-11-23T21:39:34.549Z,16.63
2022-11-23T21:42:01.595Z,23.35
2022-11-23T21:44:28.538Z,28.25
2022-11-23T21:46:56.291Z,24.73
2022-11-23T21:49:28.522Z,27.58
2022-11-23T21:51:55.513Z,23.83
2022-11-23T21:54:23.539Z,25.88
2022-11-23T21:56:50.458Z,25.13
2022-11-23T21:59:17.509Z,25.20
2022-11-23T22:01:47.639Z,18.08
2022-11-23T22:04:16.217Z,22.88
2022-11-23T22:06:47.081Z,23.00
2022-11-23T22:09:14.690Z,21.73
2022-11-23T22:11:43.992Z,23.65
2022-11-23T22:14:13.313Z,24.40
2022-11-23T22:16:43.557Z,22.05
2022-11-23T22:19:12.311Z,19.80
2022-11-23T22:21:40.485Z,22.25
2022-11-23T22:24:13.160Z,20.17
2022-11-23T22:26:43.821Z,24.88
2022-11-23T22:29:11.035Z,25.35
2022-11-23T22:31:38.217Z,21.27
2022-11-23T22:34:10.137Z,20.33
2022-11-23T22:36:39.157Z,19.33
2022-11-23T22:39:07.205Z,22.40
2022-11-23T22:41:37.691Z,14.30
2022-11-23T22:44:07.004Z,20.15
2022-11-23T22:46:36.284Z,23.85
2022-11-23T22:49:04.874Z,19.23
2022-11-23T22:51:33.091Z,18.38
2022-11-23T22:54:02.235Z,17.58
2022-11-23T22:56:31.207Z,24.13
2022-11-23T22:58:58.819Z,23.10
2022-11-23T23:01:29.007Z,23.63
2022-11-23T23:03:57.957Z,13.77
2022-11-23T23:09:01.449Z,24.40
2022-11-23T23:11:31.886Z,10.27
2022-11-23T23:13:59.887Z,25.55
2022-11-23T23:16:28.786Z,21.75
2022-11-23T23:18:58.164Z,20.83
2022-11-23T23:21:28.726Z,15.88
2022-11-23T23:23:59.275Z,18.52
2022-11-23T23:26:28.773Z,14.40
2022-11-23T23:28:57.436Z,17.80
2022-11-23T23:31:25.129Z,17.00
2022-11-23T23:33:54.118Z,18.73
2022-11-23T23:36:22.944Z,23.50
2022-11-23T23:38:51.064Z,16.52
2022-11-23T23:41:19.662Z,23.00
2022-11-23T23:43:48.155Z,21.00
2022-11-23T23:46:16.717Z,26.58
2022-11-23T23:48:47.012Z,20.95
2022-11-23T23:51:15.190Z,16.20
2022-11-23T23:53:46.255Z,31.42
2022-11-23T23:56:16.111Z,18.52
2022-11-23T23:58:43.781Z,20.63
